ADDS METAR Data INFO
IDs: Format: Raw Decoded Include TAF

Data at: 1412 UTC 12 Dec 2017

KMCI 121353Z 30005KT 10SM FEW250 M07/M10 A3034 RMK AO2 SLP283 T10721100
KMCI 121253Z 33007KT 10SM CLR M07/M10 A3033 RMK AO2 SLP279 T10721100
KMCI 121153Z 35008KT 10SM CLR M07/M11 A3032 RMK AO2 SLP274 T10671106 10000 21072 50002
KMCI 121053Z 35012KT 8SM CLR M05/M09 A3032 RMK AO2 SLP275 T10501094
KMCI 120953Z 34010KT 10SM CLR M04/M08 A3032 RMK AO2 SLP273 T10391083
KMCI 120853Z 35012KT 10SM CLR M03/M08 A3031 RMK AO2 SLP270 T10281078 53016
KMCI 120753Z 35009KT 10SM CLR M02/M06 A3029 RMK AO2 SLP262 T10171056
KMCI 120653Z 34012G17KT 10SM CLR M01/M05 A3027 RMK AO2 SLP255 T10061050
KMCI 120553Z 33010KT 10SM CLR 00/M05 A3026 RMK AO2 SLP252 T00001050 10083 20000 401331006 51022
KMCI 120453Z 34022G27KT 10SM FEW033 02/M06 A3024 RMK AO2 PK WND 34027/0452 SLP245 T00171056
KMCI 120353Z 34015G22KT 10SM SCT033 03/M03 A3023 RMK AO2 PK WND 34027/0313 SLP239 T00281033
KMCI 120253Z 34016G26KT 10SM OVC039 04/M03 A3020 RMK AO2 PK WND 32033/0158 SLP228 T00441028 53041
KMCI 120153Z 34021G29KT 10SM SCT030 OVC045 06/M02 A3015 RMK AO2 PK WND 34029/0150 SLP213 T00611017
KMCI 120053Z 32014G25KT 10SM BKN033 OVC046 07/01 A3012 RMK AO2 PK WND 32038/0021 SLP202 T00670011
KMCI 112353Z 33017G30KT 10SM BKN047 OVC060 08/M01 A3007 RMK AO2 PK WND 33030/2349 SLP186 T00831006 10133 20083 51024
KMCI 112253Z 33016G25KT 10SM FEW049 BKN060 09/M01 A3005 RMK AO2 PK WND 32032/2207 SLP178 T00891011
KMCI 112153Z 33017G26KT 10SM SCT065 BKN200 10/M02 A3003 RMK AO2 PK WND 32033/2129 SLP170 T01001017
KMCI 112053Z 32020G35KT 10SM SCT060 BKN180 11/M02 A3000 RMK AO2 PK WND 31035/2044 SLP161 T01061022 53015
KMCI 111953Z 31022G32KT 10SM SCT065 SCT140 SCT220 13/M03 A2997 RMK AO2 PK WND 30032/1952 SLP152 T01281028
KMCI 111853Z 33021G27KT 10SM SCT140 SCT220 SCT250 13/M04 A2996 RMK AO2 PK WND 33034/1757 SLP147 T01331039
KMCI 111753Z 33020G31KT 10SM SCT140 SCT220 13/M04 A2995 RMK AO2 PK WND 29034/1719 SLP144 T01331044 10133 20022 50001
KMCI 111653Z 32018G28KT 10SM BKN140 BKN220 12/M06 A2996 RMK AO2 PK WND 32028/1650 SLP148 T01171061
KMCI 111553Z 29009KT 10SM BKN140 BKN220 08/M08 A2998 RMK AO2 SLP155 T00831078
KMCI 111453Z 28013KT 10SM FEW065 SCT140 BKN200 08/M08 A2995 RMK AO2 SLP144 T00781078 55000
KMCI 111353Z COR 25009KT 8SM SCT140 03/M08 A2995 RMK AO2 SLP147 T00281078
KMCI 111253Z 24009KT 10SM FEW110 SCT140 02/M07 A2995 RMK AO2 SLP143 T00221072 $
KMCI 111153Z 24009KT 10SM CLR 02/M07 A2995 RMK AO2 SLP145 T00221072 10033 21006 58023 $
KMCI 111053Z 25008KT 10SM CLR 02/M07 A2998 RMK AO2 SLP156 T00221067 $
KMCI 110953Z 24008KT 10SM CLR 02/M07 A3000 RMK AO2 SLP159 T00171067 $
KMCI 110853Z 20008KT 10SM CLR 01/M06 A3002 RMK AO2 SLP168 T00061061 56029 $
KMCI 110753Z 20009KT 10SM CLR 02/M06 A3004 RMK AO2 SLP174 T00171056 $
KMCI 110653Z 21007KT 10SM CLR 03/M05 A3008 RMK AO2 SLP187 T00281050 $
KMCI 110553Z 19007KT 10SM CLR 03/M05 A3011 RMK AO2 SLP198 T00331050 10100 20017 401501050 58007 $
KMCI 110453Z 21008KT 10SM CLR 03/M05 A3012 RMK AO2 SLP204 T00331050 $
KMCI 110353Z 17004KT 10SM CLR 04/M05 A3012 RMK AO2 SLP203 T00441050 $
KMCI 110253Z 21004KT 10SM CLR 07/M04 A3013 RMK AO2 SLP206 T00721044 50000 $